sensor_id;sensor_type;location;lat;lon;timestamp;P1;durP1;ratioP1;P2;durP2;ratioP2
46415;SDS011;32620;51.704;7.822;2023-07-29T00:00:41;7.70;;;4.25;;
46415;SDS011;32620;51.704;7.822;2023-07-29T00:03:07;4.68;;;4.05;;
46415;SDS011;32620;51.704;7.822;2023-07-29T00:05:33;5.38;;;4.07;;
46415;SDS011;32620;51.704;7.822;2023-07-29T00:07:59;5.70;;;4.70;;
46415;SDS011;32620;51.704;7.822;2023-07-29T00:10:25;5.93;;;4.70;;
46415;SDS011;32620;51.704;7.822;2023-07-29T00:12:52;6.47;;;4.80;;
46415;SDS011;32620;51.704;7.822;2023-07-29T00:15:18;5.90;;;4.85;;
46415;SDS011;32620;51.704;7.822;2023-07-29T00:17:43;5.22;;;4.43;;
46415;SDS011;32620;51.704;7.822;2023-07-29T00:20:09;5.90;;;5.28;;
46415;SDS011;32620;51.704;7.822;2023-07-29T00:22:35;8.32;;;5.85;;
46415;SDS011;32620;51.704;7.822;2023-07-29T00:25:01;6.32;;;5.72;;
46415;SDS011;32620;51.704;7.822;2023-07-29T00:27:27;7.00;;;6.30;;
46415;SDS011;32620;51.704;7.822;2023-07-29T00:29:53;8.02;;;6.25;;
46415;SDS011;32620;51.704;7.822;2023-07-29T00:32:19;8.02;;;5.85;;
46415;SDS011;32620;51.704;7.822;2023-07-29T00:34:45;7.95;;;6.00;;
46415;SDS011;32620;51.704;7.822;2023-07-29T00:37:11;8.50;;;5.60;;
46415;SDS011;32620;51.704;7.822;2023-07-29T00:39:37;6.40;;;5.70;;
46415;SDS011;32620;51.704;7.822;2023-07-29T00:42:03;10.75;;;6.13;;
46415;SDS011;32620;51.704;7.822;2023-07-29T00:44:30;15.45;;;7.40;;
46415;SDS011;32620;51.704;7.822;2023-07-29T00:46:56;8.18;;;7.38;;
46415;SDS011;32620;51.704;7.822;2023-07-29T00:49:23;10.05;;;7.78;;
46415;SDS011;32620;51.704;7.822;2023-07-29T00:51:49;9.85;;;8.05;;
46415;SDS011;32620;51.704;7.822;2023-07-29T00:54:15;11.13;;;8.35;;
46415;SDS011;32620;51.704;7.822;2023-07-29T00:56:41;8.77;;;7.18;;
46415;SDS011;32620;51.704;7.822;2023-07-29T00:59:07;8.48;;;7.60;;
46415;SDS011;32620;51.704;7.822;2023-07-29T01:01:33;9.00;;;7.72;;
46415;SDS011;32620;51.704;7.822;2023-07-29T01:04:00;8.05;;;7.35;;
46415;SDS011;32620;51.704;7.822;2023-07-29T01:09:09;8.65;;;7.85;;
46415;SDS011;32620;51.704;7.822;2023-07-29T01:11:55;11.10;;;9.15;;
46415;SDS011;32620;51.704;7.822;2023-07-29T01:14:41;11.05;;;9.85;;
46415;SDS011;32620;51.704;7.822;2023-07-29T01:17:08;12.15;;;10.20;;
46415;SDS011;32620;51.704;7.822;2023-07-29T01:22:05;11.65;;;9.27;;
46415;SDS011;32620;51.704;7.822;2023-07-29T01:24:32;10.63;;;8.95;;
46415;SDS011;32620;51.704;7.822;2023-07-29T01:26:58;11.02;;;8.27;;
46415;SDS011;32620;51.704;7.822;2023-07-29T01:29:26;8.43;;;7.55;;
46415;SDS011;32620;51.704;7.822;2023-07-29T01:31:52;8.32;;;7.35;;
46415;SDS011;32620;51.704;7.822;2023-07-29T01:34:24;7.50;;;6.10;;
46415;SDS011;32620;51.704;7.822;2023-07-29T01:36:52;6.90;;;6.28;;
46415;SDS011;32620;51.704;7.822;2023-07-29T01:39:20;8.82;;;7.07;;
46415;SDS011;32620;51.704;7.822;2023-07-29T01:41:47;9.35;;;6.45;;
46415;SDS011;32620;51.704;7.822;2023-07-29T01:44:14;6.80;;;6.10;;
46415;SDS011;32620;51.704;7.822;2023-07-29T01:46:40;8.18;;;6.75;;
46415;SDS011;32620;51.704;7.822;2023-07-29T01:49:06;5.80;;;5.30;;
46415;SDS011;32620;51.704;7.822;2023-07-29T01:51:32;6.43;;;5.53;;
46415;SDS011;32620;51.704;7.822;2023-07-29T01:53:58;7.15;;;6.47;;
46415;SDS011;32620;51.704;7.822;2023-07-29T01:56:24;8.02;;;6.85;;
46415;SDS011;32620;51.704;7.822;2023-07-29T01:58:50;6.93;;;6.30;;
46415;SDS011;32620;51.704;7.822;2023-07-29T02:01:16;6.80;;;6.10;;
46415;SDS011;32620;51.704;7.822;2023-07-29T02:03:43;9.52;;;7.95;;
46415;SDS011;32620;51.704;7.822;2023-07-29T02:06:09;7.20;;;6.50;;
46415;SDS011;32620;51.704;7.822;2023-07-29T02:08:35;7.10;;;5.80;;
46415;SDS011;32620;51.704;7.822;2023-07-29T02:11:01;8.77;;;7.95;;
46415;SDS011;32620;51.704;7.822;2023-07-29T02:13:27;10.35;;;7.10;;
46415;SDS011;32620;51.704;7.822;2023-07-29T02:15:52;7.50;;;6.80;;
46415;SDS011;32620;51.704;7.822;2023-07-29T02:18:19;9.70;;;7.28;;
46415;SDS011;32620;51.704;7.822;2023-07-29T02:20:45;7.40;;;6.70;;
46415;SDS011;32620;51.704;7.822;2023-07-29T02:23:14;6.07;;;5.57;;
46415;SDS011;32620;51.704;7.822;2023-07-29T02:25:41;7.55;;;6.75;;
46415;SDS011;32620;51.704;7.822;2023-07-29T02:28:07;8.15;;;6.82;;
46415;SDS011;32620;51.704;7.822;2023-07-29T02:30:33;7.05;;;6.35;;
46415;SDS011;32620;51.704;7.822;2023-07-29T02:32:58;9.82;;;8.38;;
46415;SDS011;32620;51.704;7.822;2023-07-29T02:35:26;9.07;;;7.28;;
46415;SDS011;32620;51.704;7.822;2023-07-29T02:37:52;8.02;;;7.13;;
46415;SDS011;32620;51.704;7.822;2023-07-29T02:40:18;8.30;;;6.78;;
46415;SDS011;32620;51.704;7.822;2023-07-29T02:42:45;8.02;;;7.30;;
46415;SDS011;32620;51.704;7.822;2023-07-29T02:45:11;9.85;;;7.65;;
46415;SDS011;32620;51.704;7.822;2023-07-29T02:47:37;11.05;;;8.32;;
46415;SDS011;32620;51.704;7.822;2023-07-29T02:50:03;8.50;;;7.70;;
46415;SDS011;32620;51.704;7.822;2023-07-29T02:52:30;7.40;;;6.70;;
46415;SDS011;32620;51.704;7.822;2023-07-29T02:54:55;8.20;;;6.72;;
46415;SDS011;32620;51.704;7.822;2023-07-29T02:57:21;8.13;;;7.25;;
46415;SDS011;32620;51.704;7.822;2023-07-29T02:59:47;7.13;;;6.43;;
46415;SDS011;32620;51.704;7.822;2023-07-29T03:02:13;8.73;;;7.93;;
46415;SDS011;32620;51.704;7.822;2023-07-29T03:04:41;10.32;;;8.10;;
46415;SDS011;32620;51.704;7.822;2023-07-29T03:07:07;8.68;;;7.88;;
46415;SDS011;32620;51.704;7.822;2023-07-29T03:09:33;8.55;;;7.75;;
46415;SDS011;32620;51.704;7.822;2023-07-29T03:11:59;9.57;;;7.82;;
46415;SDS011;32620;51.704;7.822;2023-07-29T03:14:25;8.20;;;7.15;;
46415;SDS011;32620;51.704;7.822;2023-07-29T03:16:52;8.52;;;7.65;;
46415;SDS011;32620;51.704;7.822;2023-07-29T03:19:18;7.45;;;6.75;;
46415;SDS011;32620;51.704;7.822;2023-07-29T03:21:44;7.18;;;6.55;;
46415;SDS011;32620;51.704;7.822;2023-07-29T03:24:10;10.02;;;8.63;;
46415;SDS011;32620;51.704;7.822;2023-07-29T03:26:36;8.38;;;7.57;;
46415;SDS011;32620;51.704;7.822;2023-07-29T03:29:02;10.00;;;8.30;;
46415;SDS011;32620;51.704;7.822;2023-07-29T03:31:28;7.18;;;6.47;;
46415;SDS011;32620;51.704;7.822;2023-07-29T03:33:54;6.85;;;6.13;;
46415;SDS011;32620;51.704;7.822;2023-07-29T03:36:20;8.15;;;7.32;;
46415;SDS011;32620;51.704;7.822;2023-07-29T03:38:47;7.93;;;7.13;;
46415;SDS011;32620;51.704;7.822;2023-07-29T03:41:12;7.88;;;6.38;;
46415;SDS011;32620;51.704;7.822;2023-07-29T03:43:38;6.93;;;6.22;;
46415;SDS011;32620;51.704;7.822;2023-07-29T03:46:04;6.88;;;6.25;;
46415;SDS011;32620;51.704;7.822;2023-07-29T03:48:30;11.77;;;7.63;;
46415;SDS011;32620;51.704;7.822;2023-07-29T03:50:56;7.95;;;6.82;;
46415;SDS011;32620;51.704;7.822;2023-07-29T03:53:22;7.63;;;6.78;;
46415;SDS011;32620;51.704;7.822;2023-07-29T03:55:48;8.35;;;7.45;;
46415;SDS011;32620;51.704;7.822;2023-07-29T03:58:15;8.18;;;7.38;;
46415;SDS011;32620;51.704;7.822;2023-07-29T04:00:41;8.48;;;7.68;;
46415;SDS011;32620;51.704;7.822;2023-07-29T04:03:08;7.82;;;7.03;;
46415;SDS011;32620;51.704;7.822;2023-07-29T04:05:34;8.20;;;7.45;;
46415;SDS011;32620;51.704;7.822;2023-07-29T04:08:00;8.65;;;7.82;;
46415;SDS011;32620;51.704;7.822;2023-07-29T04:10:26;9.05;;;7.88;;
46415;SDS011;32620;51.704;7.822;2023-07-29T04:12:52;10.95;;;9.05;;
46415;SDS011;32620;51.704;7.822;2023-07-29T04:15:17;13.02;;;9.73;;
46415;SDS011;32620;51.704;7.822;2023-07-29T04:17:43;8.75;;;7.82;;
46415;SDS011;32620;51.704;7.822;2023-07-29T04:20:10;12.43;;;9.27;;
46415;SDS011;32620;51.704;7.822;2023-07-29T04:22:36;11.70;;;9.05;;
46415;SDS011;32620;51.704;7.822;2023-07-29T04:25:02;9.07;;;7.80;;
46415;SDS011;32620;51.704;7.822;2023-07-29T04:27:29;9.35;;;7.82;;
46415;SDS011;32620;51.704;7.822;2023-07-29T04:29:55;8.70;;;7.90;;
46415;SDS011;32620;51.704;7.822;2023-07-29T04:32:21;11.25;;;8.23;;
46415;SDS011;32620;51.704;7.822;2023-07-29T04:34:47;13.20;;;8.45;;
46415;SDS011;32620;51.704;7.822;2023-07-29T04:37:13;7.95;;;7.25;;
46415;SDS011;32620;51.704;7.822;2023-07-29T04:39:39;10.13;;;7.53;;
46415;SDS011;32620;51.704;7.822;2023-07-29T04:42:05;7.68;;;6.97;;
46415;SDS011;32620;51.704;7.822;2023-07-29T04:44:31;9.68;;;8.07;;
46415;SDS011;32620;51.704;7.822;2023-07-29T04:46:57;9.88;;;8.27;;
46415;SDS011;32620;51.704;7.822;2023-07-29T04:49:23;10.07;;;7.18;;
46415;SDS011;32620;51.704;7.822;2023-07-29T04:51:49;10.25;;;7.47;;
46415;SDS011;32620;51.704;7.822;2023-07-29T04:54:15;8.20;;;6.95;;
46415;SDS011;32620;51.704;7.822;2023-07-29T04:56:41;10.95;;;7.10;;
46415;SDS011;32620;51.704;7.822;2023-07-29T04:59:07;9.15;;;7.15;;
46415;SDS011;32620;51.704;7.822;2023-07-29T05:01:33;9.48;;;7.30;;
46415;SDS011;32620;51.704;7.822;2023-07-29T05:03:59;9.32;;;6.65;;
46415;SDS011;32620;51.704;7.822;2023-07-29T05:06:25;11.43;;;7.50;;
46415;SDS011;32620;51.704;7.822;2023-07-29T05:08:51;10.02;;;7.57;;
46415;SDS011;32620;51.704;7.822;2023-07-29T05:11:17;10.32;;;8.35;;
46415;SDS011;32620;51.704;7.822;2023-07-29T05:13:43;9.10;;;8.13;;
46415;SDS011;32620;51.704;7.822;2023-07-29T05:16:09;8.85;;;7.90;;
46415;SDS011;32620;51.704;7.822;2023-07-29T05:18:35;10.57;;;8.45;;
46415;SDS011;32620;51.704;7.822;2023-07-29T05:21:01;10.65;;;7.90;;
46415;SDS011;32620;51.704;7.822;2023-07-29T05:23:27;14.77;;;8.38;;
46415;SDS011;32620;51.704;7.822;2023-07-29T05:25:52;13.18;;;8.65;;
46415;SDS011;32620;51.704;7.822;2023-07-29T05:28:18;11.57;;;8.52;;
46415;SDS011;32620;51.704;7.822;2023-07-29T05:30:44;10.50;;;8.50;;
46415;SDS011;32620;51.704;7.822;2023-07-29T05:33:10;13.95;;;9.23;;
46415;SDS011;32620;51.704;7.822;2023-07-29T05:35:36;16.48;;;9.57;;
46415;SDS011;32620;51.704;7.822;2023-07-29T05:38:03;11.88;;;10.25;;
46415;SDS011;32620;51.704;7.822;2023-07-29T05:40:31;14.15;;;10.75;;
46415;SDS011;32620;51.704;7.822;2023-07-29T05:42:57;13.68;;;10.77;;
46415;SDS011;32620;51.704;7.822;2023-07-29T05:45:23;12.30;;;10.55;;
46415;SDS011;32620;51.704;7.822;2023-07-29T05:47:48;14.88;;;11.43;;
46415;SDS011;32620;51.704;7.822;2023-07-29T05:50:14;11.82;;;10.18;;
46415;SDS011;32620;51.704;7.822;2023-07-29T05:52:41;13.00;;;10.95;;
46415;SDS011;32620;51.704;7.822;2023-07-29T05:55:07;14.15;;;11.60;;
46415;SDS011;32620;51.704;7.822;2023-07-29T05:57:33;14.05;;;10.88;;
46415;SDS011;32620;51.704;7.822;2023-07-29T05:59:59;15.45;;;11.05;;
46415;SDS011;32620;51.704;7.822;2023-07-29T06:02:25;13.20;;;10.88;;
46415;SDS011;32620;51.704;7.822;2023-07-29T06:04:51;14.43;;;11.55;;
46415;SDS011;32620;51.704;7.822;2023-07-29T06:07:17;17.75;;;12.35;;
46415;SDS011;32620;51.704;7.822;2023-07-29T06:09:42;13.70;;;11.85;;
46415;SDS011;32620;51.704;7.822;2023-07-29T06:12:08;14.38;;;12.10;;
46415;SDS011;32620;51.704;7.822;2023-07-29T06:14:34;15.55;;;12.05;;
46415;SDS011;32620;51.704;7.822;2023-07-29T06:17:00;14.18;;;12.07;;
46415;SDS011;32620;51.704;7.822;2023-07-29T06:19:26;17.73;;;12.70;;
46415;SDS011;32620;51.704;7.822;2023-07-29T06:21:54;16.42;;;14.38;;
46415;SDS011;32620;51.704;7.822;2023-07-29T06:24:20;16.73;;;14.30;;
46415;SDS011;32620;51.704;7.822;2023-07-29T06:26:46;15.77;;;13.30;;
46415;SDS011;32620;51.704;7.822;2023-07-29T06:29:12;15.52;;;12.20;;
46415;SDS011;32620;51.704;7.822;2023-07-29T06:31:38;17.17;;;12.55;;
46415;SDS011;32620;51.704;7.822;2023-07-29T06:34:04;19.13;;;12.55;;
46415;SDS011;32620;51.704;7.822;2023-07-29T06:36:30;17.92;;;13.45;;
46415;SDS011;32620;51.704;7.822;2023-07-29T06:38:56;19.80;;;13.60;;
46415;SDS011;32620;51.704;7.822;2023-07-29T06:41:22;17.15;;;13.80;;
46415;SDS011;32620;51.704;7.822;2023-07-29T06:43:48;20.40;;;13.88;;
46415;SDS011;32620;51.704;7.822;2023-07-29T06:46:14;17.15;;;14.05;;
46415;SDS011;32620;51.704;7.822;2023-07-29T06:48:40;21.75;;;14.38;;
46415;SDS011;32620;51.704;7.822;2023-07-29T06:51:06;19.33;;;14.63;;
46415;SDS011;32620;51.704;7.822;2023-07-29T06:53:32;22.45;;;15.55;;
46415;SDS011;32620;51.704;7.822;2023-07-29T06:55:58;19.42;;;15.65;;
46415;SDS011;32620;51.704;7.822;2023-07-29T06:58:24;19.75;;;15.73;;
46415;SDS011;32620;51.704;7.822;2023-07-29T07:00:50;23.08;;;17.08;;
46415;SDS011;32620;51.704;7.822;2023-07-29T07:03:16;21.50;;;15.90;;
46415;SDS011;32620;51.704;7.822;2023-07-29T07:05:42;18.58;;;16.08;;
46415;SDS011;32620;51.704;7.822;2023-07-29T07:08:08;22.70;;;15.52;;
46415;SDS011;32620;51.704;7.822;2023-07-29T07:10:34;20.23;;;16.33;;
46415;SDS011;32620;51.704;7.822;2023-07-29T07:13:00;19.85;;;15.90;;
46415;SDS011;32620;51.704;7.822;2023-07-29T07:15:26;23.08;;;16.55;;
46415;SDS011;32620;51.704;7.822;2023-07-29T07:17:52;18.30;;;16.10;;
46415;SDS011;32620;51.704;7.822;2023-07-29T07:20:18;20.70;;;16.00;;
46415;SDS011;32620;51.704;7.822;2023-07-29T07:22:44;21.00;;;15.43;;
46415;SDS011;32620;51.704;7.822;2023-07-29T07:25:10;15.18;;;13.02;;
46415;SDS011;32620;51.704;7.822;2023-07-29T07:27:36;10.10;;;8.48;;
46415;SDS011;32620;51.704;7.822;2023-07-29T07:30:02;8.02;;;6.05;;
46415;SDS011;32620;51.704;7.822;2023-07-29T07:32:28;7.53;;;6.70;;
46415;SDS011;32620;51.704;7.822;2023-07-29T07:34:54;10.00;;;6.32;;
46415;SDS011;32620;51.704;7.822;2023-07-29T07:37:20;7.47;;;6.25;;
46415;SDS011;32620;51.704;7.822;2023-07-29T07:39:46;8.30;;;6.10;;
46415;SDS011;32620;51.704;7.822;2023-07-29T07:42:12;6.75;;;5.40;;
46415;SDS011;32620;51.704;7.822;2023-07-29T07:44:38;6.63;;;4.13;;
46415;SDS011;32620;51.704;7.822;2023-07-29T07:47:04;5.38;;;3.42;;
46415;SDS011;32620;51.704;7.822;2023-07-29T07:49:30;4.22;;;2.80;;
46415;SDS011;32620;51.704;7.822;2023-07-29T07:51:56;2.65;;;2.28;;
46415;SDS011;32620;51.704;7.822;2023-07-29T07:54:22;3.40;;;3.08;;
46415;SDS011;32620;51.704;7.822;2023-07-29T07:56:48;4.03;;;3.10;;
46415;SDS011;32620;51.704;7.822;2023-07-29T07:59:14;5.55;;;2.30;;
46415;SDS011;32620;51.704;7.822;2023-07-29T08:01:40;4.00;;;2.40;;
46415;SDS011;32620;51.704;7.822;2023-07-29T08:04:06;6.05;;;2.47;;
46415;SDS011;32620;51.704;7.822;2023-07-29T08:06:32;3.25;;;2.50;;
46415;SDS011;32620;51.704;7.822;2023-07-29T08:08:58;5.20;;;2.65;;
46415;SDS011;32620;51.704;7.822;2023-07-29T08:11:24;5.90;;;2.20;;
46415;SDS011;32620;51.704;7.822;2023-07-29T08:13:50;4.43;;;2.50;;
46415;SDS011;32620;51.704;7.822;2023-07-29T08:16:16;3.53;;;2.10;;
46415;SDS011;32620;51.704;7.822;2023-07-29T08:18:42;2.28;;;1.60;;
46415;SDS011;32620;51.704;7.822;2023-07-29T08:21:08;3.42;;;1.70;;
46415;SDS011;32620;51.704;7.822;2023-07-29T08:23:34;2.53;;;1.60;;
46415;SDS011;32620;51.704;7.822;2023-07-29T08:26:02;2.05;;;1.27;;
46415;SDS011;32620;51.704;7.822;2023-07-29T08:28:31;3.30;;;1.77;;
46415;SDS011;32620;51.704;7.822;2023-07-29T08:30:58;2.53;;;1.45;;
46415;SDS011;32620;51.704;7.822;2023-07-29T08:33:24;7.95;;;2.10;;
46415;SDS011;32620;51.704;7.822;2023-07-29T08:35:50;3.08;;;1.63;;
46415;SDS011;32620;51.704;7.822;2023-07-29T08:38:16;2.58;;;1.77;;
46415;SDS011;32620;51.704;7.822;2023-07-29T08:40:43;3.08;;;2.20;;
46415;SDS011;32620;51.704;7.822;2023-07-29T08:43:13;4.22;;;1.88;;
46415;SDS011;32620;51.704;7.822;2023-07-29T08:45:41;3.70;;;2.03;;
46415;SDS011;32620;51.704;7.822;2023-07-29T08:48:09;6.43;;;2.28;;
46415;SDS011;32620;51.704;7.822;2023-07-29T08:50:37;4.13;;;1.88;;
46415;SDS011;32620;51.704;7.822;2023-07-29T08:53:04;3.88;;;2.60;;
46415;SDS011;32620;51.704;7.822;2023-07-29T08:55:30;4.65;;;2.70;;
46415;SDS011;32620;51.704;7.822;2023-07-29T08:57:56;2.13;;;1.90;;
46415;SDS011;32620;51.704;7.822;2023-07-29T09:00:23;3.35;;;2.08;;
46415;SDS011;32620;51.704;7.822;2023-07-29T09:02:50;2.75;;;2.10;;
46415;SDS011;32620;51.704;7.822;2023-07-29T09:05:15;1.77;;;1.63;;
46415;SDS011;32620;51.704;7.822;2023-07-29T09:07:41;4.53;;;1.40;;
46415;SDS011;32620;51.704;7.822;2023-07-29T09:10:09;3.45;;;1.77;;
46415;SDS011;32620;51.704;7.822;2023-07-29T09:12:36;7.22;;;1.80;;
46415;SDS011;32620;51.704;7.822;2023-07-29T09:15:01;2.22;;;1.60;;
46415;SDS011;32620;51.704;7.822;2023-07-29T09:17:27;2.97;;;1.65;;
46415;SDS011;32620;51.704;7.822;2023-07-29T09:19:57;2.03;;;1.60;;
46415;SDS011;32620;51.704;7.822;2023-07-29T09:22:23;1.70;;;1.60;;
46415;SDS011;32620;51.704;7.822;2023-07-29T09:24:50;3.15;;;1.60;;
46415;SDS011;32620;51.704;7.822;2023-07-29T09:27:31;1.50;;;1.40;;
46415;SDS011;32620;51.704;7.822;2023-07-29T09:29:57;2.35;;;1.67;;
46415;SDS011;32620;51.704;7.822;2023-07-29T09:32:24;2.35;;;1.52;;
46415;SDS011;32620;51.704;7.822;2023-07-29T09:34:50;3.25;;;1.50;;
46415;SDS011;32620;51.704;7.822;2023-07-29T09:37:17;1.55;;;1.35;;
46415;SDS011;32620;51.704;7.822;2023-07-29T09:39:46;2.38;;;1.30;;
46415;SDS011;32620;51.704;7.822;2023-07-29T09:42:20;4.57;;;1.38;;
46415;SDS011;32620;51.704;7.822;2023-07-29T09:44:47;2.75;;;1.20;;
46415;SDS011;32620;51.704;7.822;2023-07-29T09:47:22;2.83;;;1.30;;
46415;SDS011;32620;51.704;7.822;2023-07-29T09:49:49;0.90;;;0.90;;
46415;SDS011;32620;51.704;7.822;2023-07-29T09:52:16;4.18;;;1.20;;
46415;SDS011;32620;51.704;7.822;2023-07-29T09:54:43;2.55;;;1.30;;
46415;SDS011;32620;51.704;7.822;2023-07-29T09:57:10;6.30;;;1.40;;
46415;SDS011;32620;51.704;7.822;2023-07-29T09:59:38;3.13;;;1.10;;
46415;SDS011;32620;51.704;7.822;2023-07-29T10:02:04;2.83;;;1.00;;
46415;SDS011;32620;51.704;7.822;2023-07-29T10:04:29;1.75;;;1.05;;
46415;SDS011;32620;51.704;7.822;2023-07-29T10:06:56;7.55;;;1.23;;
46415;SDS011;32620;51.704;7.822;2023-07-29T10:09:22;1.88;;;0.90;;
46415;SDS011;32620;51.704;7.822;2023-07-29T10:11:49;2.88;;;1.50;;
46415;SDS011;32620;51.704;7.822;2023-07-29T10:14:15;2.83;;;1.20;;
46415;SDS011;32620;51.704;7.822;2023-07-29T10:16:42;2.53;;;1.20;;
46415;SDS011;32620;51.704;7.822;2023-07-29T10:19:11;1.40;;;1.17;;
46415;SDS011;32620;51.704;7.822;2023-07-29T10:21:39;2.72;;;1.30;;
46415;SDS011;32620;51.704;7.822;2023-07-29T10:24:09;2.83;;;1.23;;
46415;SDS011;32620;51.704;7.822;2023-07-29T10:26:41;1.45;;;1.35;;
46415;SDS011;32620;51.704;7.822;2023-07-29T10:29:11;2.35;;;1.75;;
46415;SDS011;32620;51.704;7.822;2023-07-29T10:31:38;3.58;;;1.52;;
46415;SDS011;32620;51.704;7.822;2023-07-29T10:34:08;1.85;;;1.73;;
46415;SDS011;32620;51.704;7.822;2023-07-29T10:36:34;2.15;;;1.75;;
46415;SDS011;32620;51.704;7.822;2023-07-29T10:39:01;2.72;;;2.10;;
46415;SDS011;32620;51.704;7.822;2023-07-29T10:41:58;2.30;;;2.20;;
46415;SDS011;32620;51.704;7.822;2023-07-29T10:45:05;2.20;;;2.10;;
46415;SDS011;32620;51.704;7.822;2023-07-29T10:47:18;3.03;;;2.60;;
46415;SDS011;32620;51.704;7.822;2023-07-29T10:49:46;2.85;;;2.30;;
46415;SDS011;32620;51.704;7.822;2023-07-29T10:52:15;2.67;;;2.47;;
46415;SDS011;32620;51.704;7.822;2023-07-29T10:54:42;2.50;;;2.20;;
46415;SDS011;32620;51.704;7.822;2023-07-29T10:57:13;2.30;;;2.10;;
46415;SDS011;32620;51.704;7.822;2023-07-29T10:59:40;3.65;;;1.98;;
46415;SDS011;32620;51.704;7.822;2023-07-29T11:02:18;2.50;;;2.30;;
46415;SDS011;32620;51.704;7.822;2023-07-29T11:04:46;2.45;;;2.13;;
46415;SDS011;32620;51.704;7.822;2023-07-29T11:09:52;3.47;;;2.58;;
46415;SDS011;32620;51.704;7.822;2023-07-29T11:12:53;3.40;;;2.63;;
46415;SDS011;32620;51.704;7.822;2023-07-29T11:15:13;2.83;;;2.33;;
46415;SDS011;32620;51.704;7.822;2023-07-29T11:17:43;3.25;;;2.45;;
46415;SDS011;32620;51.704;7.822;2023-07-29T11:20:15;3.70;;;2.40;;
46415;SDS011;32620;51.704;7.822;2023-07-29T11:22:41;4.80;;;2.58;;
46415;SDS011;32620;51.704;7.822;2023-07-29T11:25:09;2.88;;;2.67;;
46415;SDS011;32620;51.704;7.822;2023-07-29T11:27:37;4.22;;;2.80;;
46415;SDS011;32620;51.704;7.822;2023-07-29T11:30:04;4.20;;;3.00;;
46415;SDS011;32620;51.704;7.822;2023-07-29T11:32:34;2.80;;;2.60;;
46415;SDS011;32620;51.704;7.822;2023-07-29T11:35:01;3.72;;;2.90;;
46415;SDS011;32620;51.704;7.822;2023-07-29T11:37:27;4.32;;;3.00;;
46415;SDS011;32620;51.704;7.822;2023-07-29T11:39:53;2.55;;;2.35;;
46415;SDS011;32620;51.704;7.822;2023-07-29T11:42:19;3.90;;;2.25;;
46415;SDS011;32620;51.704;7.822;2023-07-29T11:44:44;4.78;;;3.40;;
46415;SDS011;32620;51.704;7.822;2023-07-29T11:47:11;3.50;;;2.97;;
46415;SDS011;32620;51.704;7.822;2023-07-29T11:49:39;3.85;;;3.08;;
46415;SDS011;32620;51.704;7.822;2023-07-29T11:52:05;2.67;;;2.47;;
46415;SDS011;32620;51.704;7.822;2023-07-29T11:54:34;2.83;;;2.35;;
46415;SDS011;32620;51.704;7.822;2023-07-29T11:57:02;2.97;;;2.67;;
46415;SDS011;32620;51.704;7.822;2023-07-29T11:59:36;2.67;;;2.28;;
46415;SDS011;32620;51.704;7.822;2023-07-29T12:02:07;2.45;;;2.22;;
46415;SDS011;32620;51.704;7.822;2023-07-29T12:04:37;2.45;;;2.20;;
46415;SDS011;32620;51.704;7.822;2023-07-29T12:07:03;3.38;;;2.13;;
46415;SDS011;32620;51.704;7.822;2023-07-29T12:09:30;2.63;;;1.98;;
46415;SDS011;32620;51.704;7.822;2023-07-29T12:11:55;1.90;;;1.80;;
46415;SDS011;32620;51.704;7.822;2023-07-29T12:14:25;3.58;;;1.95;;
46415;SDS011;32620;51.704;7.822;2023-07-29T12:16:52;1.80;;;1.70;;
46415;SDS011;32620;51.704;7.822;2023-07-29T12:19:18;2.00;;;1.80;;
46415;SDS011;32620;51.704;7.822;2023-07-29T12:21:44;2.10;;;1.88;;
46415;SDS011;32620;51.704;7.822;2023-07-29T12:24:13;2.67;;;2.47;;
46415;SDS011;32620;51.704;7.822;2023-07-29T12:26:40;4.47;;;3.42;;
46415;SDS011;32620;51.704;7.822;2023-07-29T12:29:14;2.60;;;2.40;;
46415;SDS011;32620;51.704;7.822;2023-07-29T12:31:41;4.88;;;2.30;;
46415;SDS011;32620;51.704;7.822;2023-07-29T12:34:07;2.35;;;2.15;;
46415;SDS011;32620;51.704;7.822;2023-07-29T12:36:49;2.33;;;1.90;;
46415;SDS011;32620;51.704;7.822;2023-07-29T12:39:49;3.58;;;2.40;;
46415;SDS011;32620;51.704;7.822;2023-07-29T12:42:07;3.42;;;2.42;;
46415;SDS011;32620;51.704;7.822;2023-07-29T12:44:34;5.25;;;2.13;;
46415;SDS011;32620;51.704;7.822;2023-07-29T12:47:01;2.60;;;2.40;;
46415;SDS011;32620;51.704;7.822;2023-07-29T12:49:28;2.72;;;2.30;;
46415;SDS011;32620;51.704;7.822;2023-07-29T12:51:54;10.07;;;6.28;;
46415;SDS011;32620;51.704;7.822;2023-07-29T12:54:20;7.50;;;5.30;;
46415;SDS011;32620;51.704;7.822;2023-07-29T12:56:46;5.65;;;4.32;;
46415;SDS011;32620;51.704;7.822;2023-07-29T12:59:11;5.38;;;2.80;;
46415;SDS011;32620;51.704;7.822;2023-07-29T13:01:37;3.97;;;2.75;;
46415;SDS011;32620;51.704;7.822;2023-07-29T13:04:02;3.17;;;2.60;;
46415;SDS011;32620;51.704;7.822;2023-07-29T13:06:28;2.78;;;2.22;;
46415;SDS011;32620;51.704;7.822;2023-07-29T13:08:54;2.63;;;2.42;;
46415;SDS011;32620;51.704;7.822;2023-07-29T13:11:19;5.57;;;2.58;;
46415;SDS011;32620;51.704;7.822;2023-07-29T13:13:45;2.85;;;2.30;;
46415;SDS011;32620;51.704;7.822;2023-07-29T13:16:11;3.72;;;2.60;;
46415;SDS011;32620;51.704;7.822;2023-07-29T13:18:37;2.95;;;2.35;;
46415;SDS011;32620;51.704;7.822;2023-07-29T13:21:03;2.30;;;2.10;;
46415;SDS011;32620;51.704;7.822;2023-07-29T13:23:29;2.65;;;2.40;;
46415;SDS011;32620;51.704;7.822;2023-07-29T13:25:55;2.25;;;2.05;;
46415;SDS011;32620;51.704;7.822;2023-07-29T13:28:21;2.35;;;2.08;;
46415;SDS011;32620;51.704;7.822;2023-07-29T13:30:47;4.15;;;2.22;;
46415;SDS011;32620;51.704;7.822;2023-07-29T13:33:12;2.20;;;1.67;;
46415;SDS011;32620;51.704;7.822;2023-07-29T13:35:38;5.10;;;2.10;;
46415;SDS011;32620;51.704;7.822;2023-07-29T13:38:03;2.50;;;1.70;;
46415;SDS011;32620;51.704;7.822;2023-07-29T13:40:29;2.65;;;1.90;;
46415;SDS011;32620;51.704;7.822;2023-07-29T13:42:54;4.50;;;1.95;;
46415;SDS011;32620;51.704;7.822;2023-07-29T13:45:20;1.92;;;1.70;;
46415;SDS011;32620;51.704;7.822;2023-07-29T13:47:46;7.28;;;4.82;;
46415;SDS011;32620;51.704;7.822;2023-07-29T13:50:12;4.75;;;3.45;;
46415;SDS011;32620;51.704;7.822;2023-07-29T13:52:38;6.13;;;4.22;;
46415;SDS011;32620;51.704;7.822;2023-07-29T13:55:04;2.67;;;2.13;;
46415;SDS011;32620;51.704;7.822;2023-07-29T13:57:30;4.95;;;2.33;;
46415;SDS011;32620;51.704;7.822;2023-07-29T13:59:56;4.55;;;2.05;;
46415;SDS011;32620;51.704;7.822;2023-07-29T14:02:22;2.88;;;2.67;;
46415;SDS011;32620;51.704;7.822;2023-07-29T14:04:48;2.50;;;2.30;;
46415;SDS011;32620;51.704;7.822;2023-07-29T14:07:13;2.92;;;2.17;;
46415;SDS011;32620;51.704;7.822;2023-07-29T14:09:39;2.35;;;1.80;;
46415;SDS011;32620;51.704;7.822;2023-07-29T14:12:05;7.78;;;3.05;;
46415;SDS011;32620;51.704;7.822;2023-07-29T14:14:31;4.45;;;2.10;;
46415;SDS011;32620;51.704;7.822;2023-07-29T14:16:57;2.42;;;2.22;;
46415;SDS011;32620;51.704;7.822;2023-07-29T14:19:23;4.63;;;2.65;;
46415;SDS011;32620;51.704;7.822;2023-07-29T14:21:48;2.58;;;2.20;;
46415;SDS011;32620;51.704;7.822;2023-07-29T14:24:14;3.13;;;2.22;;
46415;SDS011;32620;51.704;7.822;2023-07-29T14:26:40;5.72;;;3.03;;
46415;SDS011;32620;51.704;7.822;2023-07-29T14:29:06;2.55;;;2.35;;
46415;SDS011;32620;51.704;7.822;2023-07-29T14:31:32;2.35;;;2.15;;
46415;SDS011;32620;51.704;7.822;2023-07-29T14:33:57;5.60;;;2.65;;
46415;SDS011;32620;51.704;7.822;2023-07-29T14:36:23;6.97;;;2.20;;
46415;SDS011;32620;51.704;7.822;2023-07-29T14:38:49;3.90;;;2.30;;
46415;SDS011;32620;51.704;7.822;2023-07-29T14:41:14;3.72;;;2.53;;
46415;SDS011;32620;51.704;7.822;2023-07-29T14:43:40;2.63;;;2.42;;
46415;SDS011;32620;51.704;7.822;2023-07-29T14:46:05;3.45;;;2.35;;
46415;SDS011;32620;51.704;7.822;2023-07-29T14:48:31;3.13;;;2.55;;